sensor_id;sensor_type;location;lat;lon;timestamp;pressure;altitude;pressure_sealevel;temperature
63297;BMP280;49419;51.716;-4.948;2022-12-18T14:16:06;99898.63;;;11.34
63297;BMP280;49419;51.716;-4.948;2022-12-18T14:19:22;99877.47;;;11.44
63297;BMP280;49419;51.716;-4.948;2022-12-18T14:21:57;99874.25;;;11.52
63297;BMP280;49419;51.716;-4.948;2022-12-18T14:24:37;99860.69;;;11.60
63297;BMP280;49419;51.716;-4.948;2022-12-18T14:27:29;99867.88;;;11.76
63297;BMP280;49419;51.716;-4.948;2022-12-18T14:30:33;99851.00;;;11.90
63297;BMP280;49419;51.716;-4.948;2022-12-18T14:33:44;99853.72;;;11.99
63297;BMP280;49419;51.716;-4.948;2022-12-18T14:36:32;99852.88;;;11.98
63297;BMP280;49419;51.716;-4.948;2022-12-18T14:39:17;99841.84;;;12.05
63297;BMP280;49419;51.716;-4.948;2022-12-18T14:42:11;99831.66;;;12.11
63297;BMP280;49419;51.716;-4.948;2022-12-18T14:55:04;99845.81;;;12.34
63297;BMP280;49419;51.716;-4.948;2022-12-18T14:58:05;99839.84;;;12.36
63297;BMP280;49419;51.716;-4.948;2022-12-18T15:00:31;99836.50;;;12.40
63297;BMP280;49419;51.716;-4.948;2022-12-18T15:03:09;99830.47;;;12.41
63297;BMP280;49419;51.716;-4.948;2022-12-18T15:05:54;99815.09;;;12.43
63297;BMP280;49419;51.716;-4.948;2022-12-18T15:09:21;99831.47;;;12.49
63297;BMP280;49419;51.716;-4.948;2022-12-18T15:20:16;99828.09;;;12.53
63297;BMP280;49419;51.716;-4.948;2022-12-18T15:23:04;99826.44;;;12.55
63297;BMP280;49419;51.716;-4.948;2022-12-18T15:25:39;99823.00;;;12.56
63297;BMP280;49419;51.716;-4.948;2022-12-18T15:28:55;99823.03;;;12.59
63297;BMP280;49419;51.716;-4.948;2022-12-18T15:32:04;99819.66;;;12.60
63297;BMP280;49419;51.716;-4.948;2022-12-18T15:34:42;99798.94;;;12.54
63297;BMP280;49419;51.716;-4.948;2022-12-18T15:37:39;99821.31;;;12.58
63297;BMP280;49419;51.716;-4.948;2022-12-18T15:40:28;99812.78;;;12.60
63297;BMP280;49419;51.716;-4.948;2022-12-18T15:43:17;99812.81;;;12.62
63297;BMP280;49419;51.716;-4.948;2022-12-18T15:46:34;99816.25;;;12.64
63297;BMP280;49419;51.716;-4.948;2022-12-18T15:49:17;99807.66;;;12.62
63297;BMP280;49419;51.716;-4.948;2022-12-18T16:07:44;99787.19;;;12.71
63297;BMP280;49419;51.716;-4.948;2022-12-18T16:11:24;99786.47;;;12.78
63297;BMP280;49419;51.716;-4.948;2022-12-18T16:14:26;99782.06;;;12.72
63297;BMP280;49419;51.716;-4.948;2022-12-18T16:16:55;99771.81;;;12.74
63297;BMP280;49419;51.716;-4.948;2022-12-18T16:19:25;99790.78;;;12.79
63297;BMP280;49419;51.716;-4.948;2022-12-18T16:22:00;99790.81;;;12.82
63297;BMP280;49419;51.716;-4.948;2022-12-18T16:28:06;99777.94;;;12.79
63297;BMP280;49419;51.716;-4.948;2022-12-18T16:30:39;99794.34;;;12.86
63297;BMP280;49419;51.716;-4.948;2022-12-18T16:33:14;99791.75;;;12.86
63297;BMP280;49419;51.716;-4.948;2022-12-18T16:35:50;99784.84;;;12.84
63297;BMP280;49419;51.716;-4.948;2022-12-18T16:38:47;99784.03;;;12.86
63297;BMP280;49419;51.716;-4.948;2022-12-18T16:44:21;99776.28;;;12.84
63297;BMP280;49419;51.716;-4.948;2022-12-18T16:47:02;99774.59;;;12.86
63297;BMP280;49419;51.716;-4.948;2022-12-18T16:52:35;99767.75;;;12.89
63297;BMP280;49419;51.716;-4.948;2022-12-18T16:55:40;99770.38;;;12.92
63297;BMP280;49419;51.716;-4.948;2022-12-18T16:58:28;99767.81;;;12.93
63297;BMP280;49419;51.716;-4.948;2022-12-18T17:00:55;99759.22;;;12.91
63297;BMP280;49419;51.716;-4.948;2022-12-18T17:03:25;99759.19;;;12.90
63297;BMP280;49419;51.716;-4.948;2022-12-18T17:06:20;99759.28;;;12.97
63297;BMP280;49419;51.716;-4.948;2022-12-18T17:12:10;99748.13;;;13.00
63297;BMP280;49419;51.716;-4.948;2022-12-18T17:14:46;99731.84;;;12.98
63297;BMP280;49419;51.716;-4.948;2022-12-18T17:17:20;99755.97;;;13.06
63297;BMP280;49419;51.716;-4.948;2022-12-18T17:19:46;99757.66;;;13.02
63297;BMP280;49419;51.716;-4.948;2022-12-18T17:22:24;99764.59;;;13.09
63297;BMP280;49419;51.716;-4.948;2022-12-18T17:25:15;99757.72;;;13.08
63297;BMP280;49419;51.716;-4.948;2022-12-18T17:27:50;99750.91;;;13.13
63297;BMP280;49419;51.716;-4.948;2022-12-18T17:30:28;99749.19;;;13.14
63297;BMP280;49419;51.716;-4.948;2022-12-18T17:33:31;99738.88;;;13.12
63297;BMP280;49419;51.716;-4.948;2022-12-18T17:42:20;99736.44;;;13.24
63297;BMP280;49419;51.716;-4.948;2022-12-18T17:45:26;99739.00;;;13.22
63297;BMP280;49419;51.716;-4.948;2022-12-18T17:48:15;99749.38;;;13.27
63297;BMP280;49419;51.716;-4.948;2022-12-18T17:54:01;99730.53;;;13.32
63297;BMP280;49419;51.716;-4.948;2022-12-18T18:00:22;99739.19;;;13.40
63297;BMP280;49419;51.716;-4.948;2022-12-18T18:03:18;99726.34;;;13.42
63297;BMP280;49419;51.716;-4.948;2022-12-18T18:05:58;99740.03;;;13.38
63297;BMP280;49419;51.716;-4.948;2022-12-18T18:08:38;99733.19;;;13.40
63297;BMP280;49419;51.716;-4.948;2022-12-18T18:12:02;99739.22;;;13.42
63297;BMP280;49419;51.716;-4.948;2022-12-18T18:15:24;99720.38;;;13.47
63297;BMP280;49419;51.716;-4.948;2022-12-18T18:18:18;99740.16;;;13.48
63297;BMP280;49419;51.716;-4.948;2022-12-18T18:21:08;99710.03;;;13.44
63297;BMP280;49419;51.716;-4.948;2022-12-18T18:23:45;99722.09;;;13.47
63297;BMP280;49419;51.716;-4.948;2022-12-18T18:26:37;99713.53;;;13.52
63297;BMP280;49419;51.716;-4.948;2022-12-18T18:29:54;99723.94;;;13.59
63297;BMP280;49419;51.716;-4.948;2022-12-18T18:33:20;99703.31;;;13.59
63297;BMP280;49419;51.716;-4.948;2022-12-18T18:41:23;99697.31;;;13.60
63297;BMP280;49419;51.716;-4.948;2022-12-18T18:44:50;99694.66;;;13.54
63297;BMP280;49419;51.716;-4.948;2022-12-18T18:47:53;99697.31;;;13.60
63297;BMP280;49419;51.716;-4.948;2022-12-18T18:51:08;99680.09;;;13.56
63297;BMP280;49419;51.716;-4.948;2022-12-18T18:54:05;99691.34;;;13.63
63297;BMP280;49419;51.716;-4.948;2022-12-18T18:57:01;99694.72;;;13.57
63297;BMP280;49419;51.716;-4.948;2022-12-18T18:59:38;99680.97;;;13.58
63297;BMP280;49419;51.716;-4.948;2022-12-18T19:02:26;99685.31;;;13.62
63297;BMP280;49419;51.716;-4.948;2022-12-18T19:08:07;99687.06;;;13.66
63297;BMP280;49419;51.716;-4.948;2022-12-18T19:10:59;99685.34;;;13.65
63297;BMP280;49419;51.716;-4.948;2022-12-18T19:14:22;99681.97;;;13.74
63297;BMP280;49419;51.716;-4.948;2022-12-18T19:17:27;99677.63;;;13.67
63297;BMP280;49419;51.716;-4.948;2022-12-18T19:20:26;99672.50;;;13.70
63297;BMP280;49419;51.716;-4.948;2022-12-18T19:23:01;99668.22;;;13.72
63297;BMP280;49419;51.716;-4.948;2022-12-18T19:25:37;99673.41;;;13.75
63297;BMP280;49419;51.716;-4.948;2022-12-18T19:28:26;99682.03;;;13.81
63297;BMP280;49419;51.716;-4.948;2022-12-18T19:34:40;99675.16;;;13.83
63297;BMP280;49419;51.716;-4.948;2022-12-18T19:37:16;99676.06;;;13.85
63297;BMP280;49419;51.716;-4.948;2022-12-18T19:39:54;99654.53;;;13.80
63297;BMP280;49419;51.716;-4.948;2022-12-18T19:42:39;99670.03;;;13.82
63297;BMP280;49419;51.716;-4.948;2022-12-18T19:45:26;99677.78;;;13.87
63297;BMP280;49419;51.716;-4.948;2022-12-18T19:48:07;99660.59;;;13.85
63297;BMP280;49419;51.716;-4.948;2022-12-18T19:51:26;99664.94;;;13.89
63297;BMP280;49419;51.716;-4.948;2022-12-18T19:54:45;99653.75;;;13.88
63297;BMP280;49419;51.716;-4.948;2022-12-18T19:57:45;99648.56;;;13.84
63297;BMP280;49419;51.716;-4.948;2022-12-18T20:00:35;99659.75;;;13.86
63297;BMP280;49419;51.716;-4.948;2022-12-18T20:03:19;99673.53;;;13.92
63297;BMP280;49419;51.716;-4.948;2022-12-18T20:05:48;99657.19;;;13.90
63297;BMP280;49419;51.716;-4.948;2022-12-18T20:08:29;99659.78;;;13.95
63297;BMP280;49419;51.716;-4.948;2022-12-18T20:11:31;99659.78;;;13.95
63297;BMP280;49419;51.716;-4.948;2022-12-18T20:14:16;99654.63;;;13.92
63297;BMP280;49419;51.716;-4.948;2022-12-18T20:16:47;99651.22;;;13.96
63297;BMP280;49419;51.716;-4.948;2022-12-18T20:21:52;99646.16;;;14.00
63297;BMP280;49419;51.716;-4.948;2022-12-18T20:27:38;99634.13;;;14.07
63297;BMP280;49419;51.716;-4.948;2022-12-18T20:30:43;99642.75;;;14.12
63297;BMP280;49419;51.716;-4.948;2022-12-18T20:33:58;99611.81;;;14.10
63297;BMP280;49419;51.716;-4.948;2022-12-18T20:36:57;99621.25;;;14.11
63297;BMP280;49419;51.716;-4.948;2022-12-18T20:39:53;99629.03;;;14.15
63297;BMP280;49419;51.716;-4.948;2022-12-18T20:43:02;99629.03;;;14.15
63297;BMP280;49419;51.716;-4.948;2022-12-18T20:45:39;99626.47;;;14.15
63297;BMP280;49419;51.716;-4.948;2022-12-18T20:48:08;99616.09;;;14.11
63297;BMP280;49419;51.716;-4.948;2022-12-18T20:50:58;99606.63;;;14.09
63297;BMP280;49419;51.716;-4.948;2022-12-18T20:53:36;99610.94;;;14.11
63297;BMP280;49419;51.716;-4.948;2022-12-18T20:56:23;99630.75;;;14.15
63297;BMP280;49419;51.716;-4.948;2022-12-18T20:59:21;99617.81;;;14.11
63297;BMP280;49419;51.716;-4.948;2022-12-18T21:01:50;99623.84;;;14.14
63297;BMP280;49419;51.716;-4.948;2022-12-18T21:04:29;99629.06;;;14.18
63297;BMP280;49419;51.716;-4.948;2022-12-18T21:10:31;99618.72;;;14.15
63297;BMP280;49419;51.716;-4.948;2022-12-18T21:13:11;99588.59;;;14.13
63297;BMP280;49419;51.716;-4.948;2022-12-18T21:16:40;99607.53;;;14.15
63297;BMP280;49419;51.716;-4.948;2022-12-18T21:19:23;99599.78;;;14.11
63297;BMP280;49419;51.716;-4.948;2022-12-18T21:22:10;99596.31;;;14.12
63297;BMP280;49419;51.716;-4.948;2022-12-18T21:24:46;99598.03;;;14.10
63297;BMP280;49419;51.716;-4.948;2022-12-18T21:27:12;99593.72;;;14.09
63297;BMP280;49419;51.716;-4.948;2022-12-18T21:29:43;99598.06;;;14.15
63297;BMP280;49419;51.716;-4.948;2022-12-18T21:32:42;99594.59;;;14.08
63297;BMP280;49419;51.716;-4.948;2022-12-18T21:35:08;99586.00;;;14.12
63297;BMP280;49419;51.716;-4.948;2022-12-18T21:37:54;99601.50;;;14.13
63297;BMP280;49419;51.716;-4.948;2022-12-18T21:40:25;99590.31;;;14.11
63297;BMP280;49419;51.716;-4.948;2022-12-18T21:42:54;99586.00;;;14.12
63297;BMP280;49419;51.716;-4.948;2022-12-18T21:48:18;99599.78;;;14.11
63297;BMP280;49419;51.716;-4.948;2022-12-18T21:59:33;99601.47;;;14.12
63297;BMP280;49419;51.716;-4.948;2022-12-18T22:02:03;99615.22;;;14.12
63297;BMP280;49419;51.716;-4.948;2022-12-18T22:04:34;99596.31;;;14.12
63297;BMP280;49419;51.716;-4.948;2022-12-18T22:07:14;99612.66;;;14.11
63297;BMP280;49419;51.716;-4.948;2022-12-18T22:09:49;99625.56;;;14.14
63297;BMP280;49419;51.716;-4.948;2022-12-18T22:12:24;99617.88;;;14.15
63297;BMP280;49419;51.716;-4.948;2022-12-18T22:15:57;99614.38;;;14.14
63297;BMP280;49419;51.716;-4.948;2022-12-18T22:18:27;99627.34;;;14.20
63297;BMP280;49419;51.716;-4.948;2022-12-18T22:21:07;99614.38;;;14.14
63297;BMP280;49419;51.716;-4.948;2022-12-18T22:24:31;99600.66;;;14.18
63297;BMP280;49419;51.716;-4.948;2022-12-18T22:27:05;99611.00;;;14.18
63297;BMP280;49419;51.716;-4.948;2022-12-18T22:30:09;99598.94;;;14.19
63297;BMP280;49419;51.716;-4.948;2022-12-18T22:33:05;99586.88;;;14.16
63297;BMP280;49419;51.716;-4.948;2022-12-18T22:36:10;99604.09;;;14.19
63297;BMP280;49419;51.716;-4.948;2022-12-18T22:41:16;99619.66;;;14.28
63297;BMP280;49419;51.716;-4.948;2022-12-18T22:44:26;99621.34;;;14.23
63297;BMP280;49419;51.716;-4.948;2022-12-18T22:46:59;99615.34;;;14.25
63297;BMP280;49419;51.716;-4.948;2022-12-18T22:49:50;99624.81;;;14.28
63297;BMP280;49419;51.716;-4.948;2022-12-18T22:52:29;99625.66;;;14.25
63297;BMP280;49419;51.716;-4.948;2022-12-18T22:55:23;99626.53;;;14.24
63297;BMP280;49419;51.716;-4.948;2022-12-18T22:58:04;99634.28;;;14.30
63297;BMP280;49419;51.716;-4.948;2022-12-18T23:00:40;99621.34;;;14.29
63297;BMP280;49419;51.716;-4.948;2022-12-18T23:03:06;99622.25;;;14.32
63297;BMP280;49419;51.716;-4.948;2022-12-18T23:05:46;99617.91;;;14.28
63297;BMP280;49419;51.716;-4.948;2022-12-18T23:08:19;99591.28;;;14.29
63297;BMP280;49419;51.716;-4.948;2022-12-18T23:10:59;99608.47;;;14.33
63297;BMP280;49419;51.716;-4.948;2022-12-18T23:13:40;99629.13;;;14.33
63297;BMP280;49419;51.716;-4.948;2022-12-18T23:16:28;99630.91;;;14.40
63297;BMP280;49419;51.716;-4.948;2022-12-18T23:19:10;99647.25;;;14.41
63297;BMP280;49419;51.716;-4.948;2022-12-18T23:24:19;99621.41;;;14.38
63297;BMP280;49419;51.716;-4.948;2022-12-18T23:27:43;99628.34;;;14.45
63297;BMP280;49419;51.716;-4.948;2022-12-18T23:30:13;99636.94;;;14.42
63297;BMP280;49419;51.716;-4.948;2022-12-18T23:32:41;99639.53;;;14.47
63297;BMP280;49419;51.716;-4.948;2022-12-18T23:35:15;99655.88;;;14.46
63297;BMP280;49419;51.716;-4.948;2022-12-18T23:37:51;99637.81;;;14.41
63297;BMP280;49419;51.716;-4.948;2022-12-18T23:40:24;99650.72;;;14.44
63297;BMP280;49419;51.716;-4.948;2022-12-18T23:42:58;99658.47;;;14.44
63297;BMP280;49419;51.716;-4.948;2022-12-18T23:45:36;99642.91;;;14.38
63297;BMP280;49419;51.716;-4.948;2022-12-18T23:48:28;99633.44;;;14.33
63297;BMP280;49419;51.716;-4.948;2022-12-18T23:51:28;99640.34;;;14.37
63297;BMP280;49419;51.716;-4.948;2022-12-18T23:54:08;99639.50;;;14.38
63297;BMP280;49419;51.716;-4.948;2022-12-18T23:56:33;99649.84;;;14.39
63297;BMP280;49419;51.716;-4.948;2022-12-18T23:59:00;99653.28;;;14.41
